createdAt,value
2023-01-05T00:01:40.383Z,96830.09
2023-01-05T00:04:09.166Z,96834.81
2023-01-05T00:06:39.557Z,96824.41
2023-01-05T00:09:09.312Z,96824.72
2023-01-05T00:11:56.528Z,96825.41
2023-01-05T00:14:45.400Z,96823.19
2023-01-05T00:17:33.827Z,96811.78
2023-01-05T00:20:20.285Z,96811.22
2023-01-05T00:22:50.449Z,96808.22
2023-01-05T00:25:20.843Z,96813.75
2023-01-05T00:27:51.877Z,96798.25
2023-01-05T00:30:22.304Z,96800.19
2023-01-05T00:32:51.044Z,96800.19
2023-01-05T00:35:19.757Z,96798.53
2023-01-05T00:37:49.899Z,96794.06
2023-01-05T00:40:20.974Z,96786.84
2023-01-05T00:42:50.670Z,96776.97
2023-01-05T00:45:22.055Z,96776.69
2023-01-05T00:47:51.814Z,96778.22
2023-01-05T00:50:22.473Z,96782.22
2023-01-05T00:52:51.312Z,96768.63
2023-01-05T00:55:19.888Z,96771.63
2023-01-05T00:57:48.247Z,96767.88
2023-01-05T01:00:19.929Z,96762.28
2023-01-05T01:02:52.247Z,96755.06
2023-01-05T01:05:20.897Z,96756.97
2023-01-05T01:07:49.886Z,96759.78
2023-01-05T01:10:18.594Z,96767.69
2023-01-05T01:12:47.316Z,96750.03
2023-01-05T01:15:15.725Z,96750.03
2023-01-05T01:17:46.474Z,96747.25
2023-01-05T01:20:14.911Z,96742.66
2023-01-05T01:22:43.250Z,96757.22
2023-01-05T01:25:11.741Z,96748.31
2023-01-05T01:27:40.090Z,96752.91
2023-01-05T01:30:10.110Z,96758.19
2023-01-05T01:32:38.522Z,96746.81
2023-01-05T01:35:09.595Z,96750.44
2023-01-05T01:37:38.090Z,96747.81
2023-01-05T01:40:08.016Z,96741.66
2023-01-05T01:42:36.617Z,96751.41
2023-01-05T01:45:19.212Z,96739.88
2023-01-05T01:47:50.707Z,96737.25
2023-01-05T01:50:24.147Z,96743.34
2023-01-05T01:52:56.056Z,96744.16
2023-01-05T01:55:24.623Z,96741.38
2023-01-05T01:57:53.818Z,96739.44
2023-01-05T02:00:22.193Z,96742.75
2023-01-05T02:02:54.484Z,96728.59
2023-01-05T02:05:29.097Z,96720.50
2023-01-05T02:07:57.551Z,96713.44
2023-01-05T02:10:46.346Z,96708.16
2023-01-05T02:13:31.635Z,96702.19
2023-01-05T02:16:08.282Z,96700.66
2023-01-05T02:18:54.652Z,96700.00
2023-01-05T02:21:35.062Z,96710.69
2023-01-05T02:24:34.706Z,96696.66
2023-01-05T02:27:37.632Z,96703.91
2023-01-05T02:30:33.575Z,96705.59
2023-01-05T02:33:12.548Z,96688.91
2023-01-05T02:35:50.116Z,96687.25
2023-01-05T02:38:24.438Z,96689.91
2023-01-05T02:40:58.371Z,96690.84
2023-01-05T02:43:29.772Z,96677.00
2023-01-05T02:45:58.140Z,96677.00
2023-01-05T02:48:28.067Z,96659.50
2023-01-05T02:51:01.526Z,96651.59
2023-01-05T02:53:34.905Z,96637.06
2023-01-05T02:56:10.569Z,96624.28
2023-01-05T02:58:44.763Z,96626.25
2023-01-05T03:01:18.712Z,96619.34
2023-01-05T03:03:53.969Z,96614.88
2023-01-05T03:06:26.987Z,96614.88
2023-01-05T03:09:00.289Z,96614.88
2023-01-05T03:11:52.866Z,96611.84
2023-01-05T03:14:28.524Z,96604.09
2023-01-05T03:16:58.081Z,96609.53
2023-01-05T03:19:40.418Z,96617.72
2023-01-05T03:22:32.299Z,96609.00
2023-01-05T03:25:18.889Z,96596.78
2023-01-05T03:28:06.992Z,96590.81
2023-01-05T03:31:09.425Z,96583.06
2023-01-05T03:34:02.377Z,96601.69
2023-01-05T03:36:39.343Z,96603.63
2023-01-05T03:39:10.830Z,96614.03
2023-01-05T03:41:40.156Z,96603.47
2023-01-05T03:44:09.434Z,96606.78
2023-01-05T03:46:40.080Z,96606.66
2023-01-05T03:49:08.456Z,96587.22
2023-01-05T03:51:42.020Z,96596.09
2023-01-05T03:54:10.842Z,96591.50
2023-01-05T03:56:39.409Z,96578.31
2023-01-05T03:59:07.766Z,96577.34
2023-01-05T04:01:36.187Z,96575.38
2023-01-05T04:04:04.803Z,96576.34
2023-01-05T04:06:33.262Z,96587.44
2023-01-05T04:09:03.333Z,96584.81
2023-01-05T04:11:31.999Z,96586.47
2023-01-05T04:14:02.387Z,96589.78
2023-01-05T04:16:30.780Z,96589.78
2023-01-05T04:18:59.108Z,96583.84
2023-01-05T04:21:27.443Z,96574.25
2023-01-05T04:23:56.024Z,96575.06
2023-01-05T04:26:25.711Z,96564.69
2023-01-05T04:28:54.086Z,96570.78
2023-01-05T04:31:22.506Z,96584.66
2023-01-05T04:33:50.828Z,96581.88
2023-01-05T04:36:19.219Z,96588.78
2023-01-05T04:38:47.814Z,96592.09
2023-01-05T04:41:16.253Z,96595.59
2023-01-05T04:43:46.006Z,96590.47
2023-01-05T04:46:14.440Z,96601.00
2023-01-05T04:48:42.998Z,96587.16
2023-01-05T04:51:14.159Z,96594.38
2023-01-05T04:53:42.600Z,96590.22
2023-01-05T04:56:11.197Z,96586.63
2023-01-05T04:58:39.611Z,96590.91
2023-01-05T05:01:09.521Z,96596.16
2023-01-05T05:03:38.017Z,96599.66
2023-01-05T05:06:06.989Z,96560.25
2023-01-05T05:08:35.420Z,96585.13
2023-01-05T05:11:03.764Z,96588.56
2023-01-05T05:13:32.293Z,96605.59
2023-01-05T05:16:00.933Z,96611.25
2023-01-05T05:18:30.669Z,96607.66
2023-01-05T05:20:59.086Z,96610.13
2023-01-05T05:23:27.697Z,96613.59
2023-01-05T05:25:56.025Z,96615.34
2023-01-05T05:28:28.344Z,96596.31
2023-01-05T05:30:57.585Z,96610.09
2023-01-05T05:33:26.340Z,96594.84
2023-01-05T05:35:56.087Z,96605.41
2023-01-05T05:38:24.388Z,96601.66
2023-01-05T05:40:52.941Z,96595.03
2023-01-05T05:43:21.285Z,96594.84
2023-01-05T05:45:50.809Z,96598.38
2023-01-05T05:48:19.811Z,96597.22
2023-01-05T05:50:48.458Z,96606.84
2023-01-05T05:53:18.189Z,96604.81
2023-01-05T05:55:49.553Z,96605.50
2023-01-05T05:58:18.075Z,96613.75
2023-01-05T06:00:46.788Z,96621.03
2023-01-05T06:03:15.285Z,96614.88
2023-01-05T06:05:43.755Z,96636.44
2023-01-05T06:08:12.096Z,96620.50
2023-01-05T06:10:41.886Z,96626.28
2023-01-05T06:13:11.625Z,96639.22
2023-01-05T06:15:39.967Z,96636.88
2023-01-05T06:18:08.336Z,96649.16
2023-01-05T06:20:36.744Z,96629.56
2023-01-05T06:23:05.393Z,96634.06
2023-01-05T06:25:34.301Z,96658.94
2023-01-05T06:28:04.304Z,96643.50
2023-01-05T06:30:32.643Z,96656.94
2023-01-05T06:33:01.193Z,96657.94
2023-01-05T06:35:29.516Z,96654.63
2023-01-05T06:37:57.884Z,96670.03
2023-01-05T06:40:26.273Z,96667.72
2023-01-05T06:42:54.639Z,96682.63
2023-01-05T06:45:24.396Z,96666.88
2023-01-05T06:47:52.848Z,96679.97
2023-01-05T06:50:21.211Z,96662.22
2023-01-05T06:52:49.576Z,96663.91
2023-01-05T06:55:18.136Z,96663.41
2023-01-05T06:57:46.662Z,96658.75
2023-01-05T07:00:16.734Z,96668.72
2023-01-05T07:02:46.479Z,96662.41
2023-01-05T07:05:14.890Z,96667.41
2023-01-05T07:07:43.199Z,96667.41
2023-01-05T07:10:11.994Z,96674.34
2023-01-05T07:12:40.960Z,96659.59
2023-01-05T07:15:10.890Z,96657.13
2023-01-05T07:17:39.222Z,96665.41
2023-01-05T07:20:09.965Z,96665.25
2023-01-05T07:22:38.313Z,96675.00
2023-01-05T07:25:07.439Z,96678.16
2023-01-05T07:27:37.496Z,96688.09
2023-01-05T07:30:06.913Z,96692.56
2023-01-05T07:32:35.335Z,96694.38
2023-01-05T07:35:03.755Z,96698.88
2023-01-05T07:37:33.815Z,96700.50
2023-01-05T07:40:02.125Z,96714.13
2023-01-05T07:42:30.859Z,96701.38
2023-01-05T07:44:59.999Z,96712.78
2023-01-05T07:47:28.447Z,96720.44
2023-01-05T07:49:56.896Z,96722.06
2023-01-05T07:52:25.474Z,96725.22
2023-01-05T07:54:55.165Z,96707.47
2023-01-05T07:57:23.515Z,96720.72
2023-01-05T07:59:52.048Z,96709.13
2023-01-05T08:02:21.220Z,96716.56
2023-01-05T08:04:49.751Z,96729.50
2023-01-05T08:07:18.159Z,96733.66
2023-01-05T08:10:04.334Z,96736.63
2023-01-05T08:12:54.030Z,96753.03
2023-01-05T08:15:22.403Z,96746.22
2023-01-05T08:17:50.751Z,96746.22
2023-01-05T08:20:19.274Z,96750.56
2023-01-05T08:22:51.680Z,96762.16
2023-01-05T08:25:20.423Z,96761.31
2023-01-05T08:27:50.351Z,96780.91
2023-01-05T08:30:18.826Z,96778.06
2023-01-05T08:32:47.213Z,96768.09
2023-01-05T08:35:15.683Z,96775.25
2023-01-05T08:37:45.900Z,96779.72
2023-01-05T08:40:14.430Z,96776.41
2023-01-05T08:42:42.906Z,96787.19
2023-01-05T08:45:12.893Z,96783.72
2023-01-05T08:47:41.506Z,96782.06
2023-01-05T08:50:10.672Z,96790.38
2023-01-05T08:52:40.067Z,96781.75
2023-01-05T08:55:09.020Z,96784.41
2023-01-05T08:57:37.453Z,96794.31
2023-01-05T09:00:07.097Z,96782.38
2023-01-05T09:02:36.988Z,96787.88
2023-01-05T09:05:06.364Z,96801.13
2023-01-05T09:07:37.866Z,96807.44
2023-01-05T09:10:07.639Z,96812.72
2023-01-05T09:12:36.526Z,96800.28
2023-01-05T09:15:07.741Z,96808.91
2023-01-05T09:17:40.411Z,96806.09
2023-01-05T09:20:09.844Z,96797.97
2023-01-05T09:22:38.321Z,96789.69
2023-01-05T09:25:07.382Z,96800.78
2023-01-05T09:27:36.798Z,96795.97
2023-01-05T09:30:05.722Z,96809.06
2023-01-05T09:32:34.255Z,96813.22
2023-01-05T09:35:04.121Z,96816.38
2023-01-05T09:37:32.521Z,96816.03
2023-01-05T09:40:00.900Z,96808.56
2023-01-05T09:42:34.133Z,96811.88
2023-01-05T09:45:06.042Z,96824.31
2023-01-05T09:47:41.102Z,96817.84
2023-01-05T09:50:20.349Z,96812.19
2023-01-05T09:52:49.543Z,96810.38
2023-01-05T09:55:20.323Z,96810.19
2023-01-05T09:57:54.436Z,96801.09
2023-01-05T10:00:25.099Z,96814.34
2023-01-05T10:03:10.938Z,96800.25
2023-01-05T10:05:46.082Z,96817.19
2023-01-05T10:08:21.858Z,96809.22
2023-01-05T10:11:11.509Z,96809.22
2023-01-05T10:13:44.086Z,96817.00
2023-01-05T10:16:17.668Z,96827.47
2023-01-05T10:18:47.125Z,96813.19
2023-01-05T10:21:27.062Z,96823.63
2023-01-05T10:24:08.992Z,96821.16
2023-01-05T10:27:23.089Z,96824.47
2023-01-05T10:29:42.207Z,96825.28
2023-01-05T10:32:24.095Z,96814.50
2023-01-05T10:34:57.711Z,96832.09
2023-01-05T10:37:58.787Z,96829.44
2023-01-05T10:40:36.869Z,96809.84
2023-01-05T10:43:25.516Z,96813.16
2023-01-05T10:46:28.729Z,96820.78
2023-01-05T10:48:42.556Z,96817.78
2023-01-05T10:51:11.192Z,96825.59
2023-01-05T10:53:44.067Z,96822.59
2023-01-05T10:56:16.121Z,96819.78
2023-01-05T10:58:46.811Z,96831.06
2023-01-05T11:01:23.973Z,96831.88
2023-01-05T11:04:25.644Z,96827.38
2023-01-05T11:06:45.915Z,96825.38
2023-01-05T11:09:22.503Z,96832.38
2023-01-05T11:11:55.793Z,96829.56
2023-01-05T11:14:25.009Z,96834.00
2023-01-05T11:16:56.983Z,96834.69
2023-01-05T11:19:31.311Z,96821.94
2023-01-05T11:22:02.105Z,96825.09
2023-01-05T11:24:35.122Z,96823.13
2023-01-05T11:27:05.686Z,96823.63
2023-01-05T11:29:34.129Z,96828.44
2023-01-05T11:32:04.795Z,96823.00
2023-01-05T11:34:42.227Z,96820.00
2023-01-05T11:37:24.393Z,96821.34
2023-01-05T11:39:57.132Z,96821.34
2023-01-05T11:42:34.120Z,96808.91
2023-01-05T11:45:07.371Z,96824.31
2023-01-05T11:47:43.861Z,96811.41
2023-01-05T11:50:22.476Z,96817.84
2023-01-05T11:52:53.973Z,96806.59
2023-01-05T11:55:38.414Z,96796.97
2023-01-05T11:58:25.759Z,96799.63
2023-01-05T12:01:29.727Z,96797.97
2023-01-05T12:04:05.188Z,96797.81
2023-01-05T12:06:53.111Z,96785.03
2023-01-05T12:09:32.639Z,96792.47
2023-01-05T12:12:24.783Z,96794.66
2023-01-05T12:15:08.639Z,96780.03
2023-01-05T12:17:46.527Z,96781.38
2023-01-05T12:20:33.904Z,96781.84
2023-01-05T12:23:24.303Z,96794.44
2023-01-05T12:26:04.368Z,96781.50
2023-01-05T12:30:15.854Z,96779.31
2023-01-05T12:35:49.607Z,96796.22
2023-01-05T12:38:36.606Z,96812.97
2023-01-05T12:41:55.086Z,96806.03
2023-01-05T12:44:51.726Z,96810.34
2023-01-05T12:47:34.786Z,96805.22
2023-01-05T12:50:15.800Z,96810.22
2023-01-05T12:52:49.364Z,96814.53
2023-01-05T12:55:22.462Z,96822.69
2023-01-05T12:57:57.460Z,96819.00
2023-01-05T13:00:32.302Z,96817.16
2023-01-05T13:03:03.371Z,96816.97
2023-01-05T13:05:35.652Z,96807.66
2023-01-05T13:08:10.176Z,96807.47
2023-01-05T13:10:46.448Z,96807.81
2023-01-05T13:13:18.116Z,96813.41
2023-01-05T13:15:56.855Z,96811.75
2023-01-05T13:18:27.966Z,96814.25
2023-01-05T13:20:58.633Z,96824.00
2023-01-05T13:23:31.970Z,96822.19
2023-01-05T13:26:05.236Z,96818.56
2023-01-05T13:28:34.938Z,96822.34
2023-01-05T13:31:32.307Z,96816.22
2023-01-05T13:34:23.485Z,96810.75
2023-01-05T13:37:24.046Z,96813.09
2023-01-05T13:40:22.807Z,96809.44
2023-01-05T13:43:09.203Z,96810.78
2023-01-05T13:46:08.079Z,96812.97
2023-01-05T13:49:04.132Z,96805.84
2023-01-05T13:51:47.780Z,96813.44
2023-01-05T13:54:20.580Z,96812.47
2023-01-05T13:56:51.158Z,96815.78
2023-01-05T13:59:35.802Z,96822.06
2023-01-05T14:02:28.763Z,96829.03
2023-01-05T14:04:59.596Z,96826.38
2023-01-05T14:07:28.991Z,96816.75
2023-01-05T14:09:58.626Z,96824.72
2023-01-05T14:12:48.670Z,96824.72
2023-01-05T14:15:41.722Z,96830.84
2023-01-05T14:18:10.910Z,96841.47
2023-01-05T14:20:44.775Z,96836.16
2023-01-05T14:23:46.358Z,96847.41
2023-01-05T14:26:14.748Z,96853.53
2023-01-05T14:28:46.931Z,96858.84
2023-01-05T14:31:49.248Z,96849.72
2023-01-05T14:34:21.467Z,96866.47
2023-01-05T14:37:03.246Z,96854.88
2023-01-05T14:39:37.724Z,96857.53
2023-01-05T14:42:09.335Z,96853.91
2023-01-05T14:44:44.033Z,96859.03
2023-01-05T14:47:12.817Z,96860.84
2023-01-05T14:49:44.662Z,96867.81
2023-01-05T14:52:20.113Z,96868.78
2023-01-05T14:55:26.876Z,96875.75
2023-01-05T14:58:07.495Z,96873.25
2023-01-05T15:00:41.591Z,96869.78
2023-01-05T15:03:19.810Z,96879.38
2023-01-05T15:05:55.568Z,96876.75
2023-01-05T15:08:49.088Z,96874.09
2023-01-05T15:11:44.243Z,96882.03
2023-01-05T15:14:46.146Z,96883.03
2023-01-05T15:17:50.589Z,96886.66
2023-01-05T15:21:09.533Z,96900.75
2023-01-05T15:24:00.977Z,96896.44
2023-01-05T15:26:45.066Z,96902.72
2023-01-05T15:29:49.224Z,96903.56
2023-01-05T15:32:21.091Z,96900.94
2023-01-05T15:34:54.885Z,96892.97
2023-01-05T15:37:33.120Z,96897.44
2023-01-05T15:40:05.012Z,96908.03
2023-01-05T15:42:39.890Z,96897.59
2023-01-05T15:45:16.204Z,96894.97
2023-01-05T15:47:45.481Z,96880.84
2023-01-05T15:50:20.483Z,96885.34
2023-01-05T15:52:55.076Z,96881.88
2023-01-05T15:55:26.734Z,96895.94
2023-01-05T15:57:57.909Z,96894.97
2023-01-05T16:00:30.489Z,96894.97
2023-01-05T16:02:59.746Z,96893.13
2023-01-05T16:05:29.999Z,96896.75
2023-01-05T16:07:59.916Z,96895.94
2023-01-05T16:10:37.766Z,96903.88
2023-01-05T16:13:13.313Z,96903.06
2023-01-05T16:15:43.441Z,96909.19
2023-01-05T16:18:17.427Z,96909.03
2023-01-05T16:20:50.308Z,96913.50
2023-01-05T16:23:24.155Z,96921.28
2023-01-05T16:25:57.774Z,96916.81
2023-01-05T16:28:27.171Z,96922.78
2023-01-05T16:30:56.374Z,96925.44
2023-01-05T16:33:34.718Z,96923.63
2023-01-05T16:36:20.145Z,96924.28
2023-01-05T16:38:49.611Z,96922.63
2023-01-05T16:41:24.011Z,96923.47
2023-01-05T16:43:56.074Z,96930.59
2023-01-05T16:46:45.135Z,96935.88
2023-01-05T16:49:33.064Z,96945.63
2023-01-05T16:52:02.604Z,96946.50
2023-01-05T16:54:39.252Z,96944.81
2023-01-05T16:57:38.393Z,96957.25
2023-01-05T17:00:37.696Z,96956.56
2023-01-05T17:03:28.621Z,96951.41
2023-01-05T17:06:00.354Z,96939.16
2023-01-05T17:08:31.893Z,96946.28
2023-01-05T17:11:01.655Z,96947.28
2023-01-05T17:13:38.133Z,96952.59
2023-01-05T17:16:11.972Z,96955.38
2023-01-05T17:18:40.990Z,96950.38
2023-01-05T17:21:13.650Z,96959.66
2023-01-05T17:23:46.941Z,96965.09
2023-01-05T17:26:19.893Z,96973.38
2023-01-05T17:28:48.216Z,96974.50
2023-01-05T17:31:17.907Z,96975.66
2023-01-05T17:33:46.585Z,96977.63
2023-01-05T17:38:45.915Z,96992.19
2023-01-05T17:41:16.094Z,96990.84
2023-01-05T17:43:45.882Z,96991.47
2023-01-05T17:46:19.411Z,96994.88
2023-01-05T17:48:48.313Z,96991.56
2023-01-05T17:51:16.865Z,96998.66
2023-01-05T17:53:52.071Z,96999.94
2023-01-05T17:56:20.980Z,96996.47
2023-01-05T17:58:49.937Z,96993.84
2023-01-05T18:01:20.233Z,96989.69
2023-01-05T18:03:49.034Z,96996.63
2023-01-05T18:06:17.705Z,97001.09
2023-01-05T18:08:46.372Z,96998.91
2023-01-05T18:11:16.416Z,97005.19
2023-01-05T18:13:46.219Z,97002.53
2023-01-05T18:16:16.335Z,96997.25
2023-01-05T18:18:46.165Z,96999.22
2023-01-05T18:21:14.901Z,96997.72
2023-01-05T18:23:43.425Z,97004.66
2023-01-05T18:26:11.938Z,97004.66
2023-01-05T18:28:40.430Z,97003.69
2023-01-05T18:31:13.195Z,96992.09
2023-01-05T18:33:42.031Z,96992.09
2023-01-05T18:36:14.588Z,96990.28
2023-01-05T18:38:43.724Z,97000.03
2023-01-05T18:41:13.422Z,97002.53
2023-01-05T18:43:41.893Z,97014.09
2023-01-05T18:46:10.357Z,97006.03
2023-01-05T18:48:39.896Z,97016.59
2023-01-05T18:51:09.303Z,96997.09
2023-01-05T18:53:39.615Z,97009.50
2023-01-05T18:56:09.463Z,96998.41
2023-01-05T18:58:38.094Z,97009.13
2023-01-05T19:01:09.839Z,96997.88
2023-01-05T19:03:38.840Z,97004.47
2023-01-05T19:06:08.506Z,96985.25
2023-01-05T19:08:37.139Z,97001.28
2023-01-05T19:11:14.615Z,96995.13
2023-01-05T19:13:45.155Z,97001.72
2023-01-05T19:16:15.557Z,97004.69
2023-01-05T19:18:45.988Z,97006.81
2023-01-05T19:21:14.736Z,97003.34
2023-01-05T19:23:43.182Z,97003.78
2023-01-05T19:26:13.175Z,96997.97
2023-01-05T19:28:41.558Z,97006.91
2023-01-05T19:31:11.739Z,97004.25
2023-01-05T19:33:41.503Z,97011.19
2023-01-05T19:36:11.838Z,97016.47
2023-01-05T19:38:41.116Z,97014.81
2023-01-05T19:41:13.259Z,97013.16
2023-01-05T19:43:42.633Z,97016.94
2023-01-05T19:46:14.027Z,97006.66
2023-01-05T19:48:43.555Z,97005.69
2023-01-05T19:51:14.796Z,97004.84
2023-01-05T19:53:44.791Z,97003.19
2023-01-05T19:56:16.059Z,96999.72
2023-01-05T19:58:44.778Z,97008.63
2023-01-05T20:01:15.026Z,97009.63
2023-01-05T20:03:44.517Z,97010.44
2023-01-05T20:06:15.835Z,97009.75
2023-01-05T20:08:45.464Z,97011.72
2023-01-05T20:11:15.222Z,97006.88
2023-01-05T20:13:43.631Z,97014.13
2023-01-05T20:16:13.654Z,97011.63
2023-01-05T20:18:42.104Z,97007.97
2023-01-05T20:21:10.744Z,97007.31
2023-01-05T20:23:40.873Z,97009.81
2023-01-05T20:26:11.544Z,97007.31
2023-01-05T20:28:41.971Z,97014.41
2023-01-05T20:31:17.805Z,97006.75
2023-01-05T20:33:46.344Z,97004.28
2023-01-05T20:36:15.135Z,97003.44
2023-01-05T20:38:44.139Z,97007.91
2023-01-05T20:41:17.404Z,97011.69
2023-01-05T20:43:48.347Z,97008.66
2023-01-05T20:46:18.648Z,97000.31
2023-01-05T20:48:49.225Z,97010.41
2023-01-05T20:51:18.036Z,97011.34
2023-01-05T20:53:46.416Z,97008.84
2023-01-05T20:56:19.073Z,97003.03
2023-01-05T20:58:50.952Z,97004.03
2023-01-05T21:01:19.948Z,97013.59
2023-01-05T21:03:48.752Z,97010.00
2023-01-05T21:06:20.001Z,97014.47
2023-01-05T21:08:49.749Z,97017.09
2023-01-05T21:11:19.728Z,97010.69
2023-01-05T21:13:51.827Z,97013.03
2023-01-05T21:16:23.035Z,97023.63
2023-01-05T21:18:51.773Z,97013.72
2023-01-05T21:21:21.904Z,97019.81
2023-01-05T21:23:51.911Z,97019.00
2023-01-05T21:26:21.481Z,97016.19
2023-01-05T21:28:53.416Z,97008.13
2023-01-05T21:31:25.044Z,97014.09
2023-01-05T21:33:54.139Z,97009.47
2023-01-05T21:36:25.495Z,97013.66
2023-01-05T21:39:00.868Z,97008.03
2023-01-05T21:41:49.140Z,97006.63
2023-01-05T21:44:20.137Z,97013.94
2023-01-05T21:46:49.905Z,97008.13
2023-01-05T21:49:18.982Z,97005.97
2023-01-05T21:52:05.334Z,97009.16
2023-01-05T21:54:51.418Z,97006.06
2023-01-05T21:57:20.009Z,97000.59
2023-01-05T21:59:49.730Z,97001.44
2023-01-05T22:02:18.153Z,97002.13
2023-01-05T22:04:46.782Z,97003.63
2023-01-05T22:07:15.134Z,96997.53
2023-01-05T22:09:43.731Z,97011.72
2023-01-05T22:12:12.250Z,97005.75
2023-01-05T22:14:40.721Z,97005.06
2023-01-05T22:17:10.612Z,97012.84
2023-01-05T22:19:39.026Z,97006.75
2023-01-05T22:22:07.370Z,97013.69
2023-01-05T22:24:35.751Z,97012.56
2023-01-05T22:27:04.156Z,97003.78
2023-01-05T22:29:32.577Z,97007.28
2023-01-05T22:32:03.793Z,97002.66
2023-01-05T22:34:33.593Z,97004.03
2023-01-05T22:37:02.000Z,97006.53
2023-01-05T22:39:30.421Z,97008.03
2023-01-05T22:41:59.001Z,97010.34
2023-01-05T22:44:27.340Z,97001.28
2023-01-05T22:46:55.682Z,97005.72
2023-01-05T22:49:24.047Z,97011.72
2023-01-05T22:51:53.724Z,97007.41
2023-01-05T22:54:22.137Z,97011.72
2023-01-05T22:56:50.496Z,97011.56
2023-01-05T22:59:18.840Z,97004.28
2023-01-05T23:01:47.716Z,97011.09
2023-01-05T23:04:16.767Z,97008.47
2023-01-05T23:06:45.273Z,97010.09
2023-01-05T23:09:16.944Z,97004.81
2023-01-05T23:11:46.818Z,97005.97
2023-01-05T23:14:18.454Z,97009.56
2023-01-05T23:16:47.805Z,97009.75
2023-01-05T23:19:16.940Z,97014.53
2023-01-05T23:21:45.768Z,97011.34
2023-01-05T23:24:15.474Z,97010.66
2023-01-05T23:26:43.847Z,97004.69
2023-01-05T23:29:13.381Z,97003.03
2023-01-05T23:31:43.736Z,97004.03
2023-01-05T23:34:12.136Z,96996.38
2023-01-05T23:36:40.424Z,96993.88
2023-01-05T23:39:08.889Z,96996.84
2023-01-05T23:41:38.695Z,96993.50
2023-01-05T23:44:08.070Z,96990.72
2023-01-05T23:46:36.434Z,96989.72
2023-01-05T23:49:05.031Z,96982.06
2023-01-05T23:51:33.461Z,96987.56
2023-01-05T23:54:01.806Z,96985.06
2023-01-05T23:56:31.786Z,96978.94
2023-01-05T23:59:05.701Z,96978.94
